Krisjanis Valdemars — V7LI9 — position and weather

sailwx.info

Track history (hours):
 
Tides and Currents Weather Stations Pressure Air Temp Water Temp Dewpoint Dewpoint Depression Visibility Wind Speed Wind Dir Waves Ship Positions

Krisjanis Valdemars

Last reported at 2014-Dec-20 06:33 UTC. Time now 2014-Dec-20 15:50 UTC.
Position N 41°27' E 029°38'.

Length 183 m; draft 6.5 m.

Type: Tanker. MMSI: 538002757.

Date/timePositionNaut miles runAvg speedWind from/ knotsBaromVisibWave heightAir tempDewpointWater temp
2014-Dec-20 06:33N 41°27' E 029°38'1414.1
2014-Dec-20 05:33N 41°19' E 029°22'2411.7
2014-Dec-20 03:31N 41°02' E 029°00'9 9.3
2014-Dec-20 02:31N 40°53' E 028°55'10 9.0
2014-Dec-20 01:27N 40°49' E 028°44'2 1.1
2014-Dec-19 23:16N 40°48' E 028°46'1 0.8
2014-Dec-19 22:31N 40°47' E 028°46'1 0.4
2014-Dec-19 20:11N 40°47' E 028°48'0 0.3
2014-Dec-19 19:24N 40°47' E 028°48'0 0.3
2014-Dec-19 18:20N 40°47' E 028°48'0 0.2
2014-Dec-19 17:23N 40°48' E 028°48'0 0.2
2014-Dec-19 16:29N 40°48' E 028°48'0 0.3
2014-Dec-19 15:33N 40°48' E 028°48'0 0.4
2014-Dec-19 14:33N 40°48' E 028°47'1 0.5
2014-Dec-19 13:30N 40°48' E 028°46'0 0.5
2014-Dec-19 12:33N 40°47' E 028°46'0 0.4
2014-Dec-19 11:33N 40°47' E 028°45'1 0.7
2014-Dec-19 09:33N 40°48' E 028°44'23910.4
2014-Dec-18 10:30N 37°32' E 025°49'1313.1
2014-Dec-18 09:31N 37°22' E 026°00'1313.8
2014-Dec-18 08:33N 37°15' E 026°15'1513.6
2014-Dec-18 07:28N 37°08' E 026°31'3213.2
2014-Dec-18 05:04N 36°38' E 026°46'714.2
2014-Dec-18 04:32N 36°31' E 026°48'1713.9
2014-Dec-18 03:19N 36°16' E 026°59'28214.3
2014-Dec-17 07:32N 34°34' E 032°21'1414.3
2014-Dec-17 06:33N 34°29' E 032°37'1414.2
2014-Dec-17 05:33N 34°30' E 032°55'1414.0
2014-Dec-17 04:33N 34°31' E 033°12'5 5.4
2014-Dec-17 03:33N 34°30' E 033°18'1 0.6
2014-Dec-17 02:34N 34°30' E 033°19'1 1.2
2014-Dec-17 01:29N 34°29' E 033°20'1 0.7
2014-Dec-17 00:34N 34°30' E 033°20'0 0.3
2014-Dec-16 23:33N 34°30' E 033°19'0 0.1
2014-Dec-16 22:34N 34°30' E 033°19'0 0.1
2014-Dec-16 21:34N 34°30' E 033°19'0 0.4
2014-Dec-16 20:33N 34°30' E 033°19'1 0.7
2014-Dec-16 19:34N 34°29' E 033°18'1 0.9
2014-Dec-16 18:34N 34°28' E 033°18'2 1.5
2014-Dec-16 17:34N 34°27' E 033°18'4 3.8
2014-Dec-16 16:30N 34°23' E 033°18'8 0.8
2014-Dec-16 06:30N 34°15' E 033°17'0 0.3
2014-Dec-16 05:13N 34°16' E 033°17'1 0.3
2014-Dec-16 03:28N 34°16' E 033°17'1 0.4
2014-Dec-16 02:17N 34°17' E 033°17'1 0.8
2014-Dec-16 01:31N 34°17' E 033°17'2 1.5
2014-Dec-16 00:07N 34°19' E 033°18'2 4.0
2014-Dec-15 23:33N 34°22' E 033°19'4 4.3
2014-Dec-15 22:33N 34°26' E 033°20'3 3.5
2014-Dec-15 21:34N 34°29' E 033°21'1 1.4
2014-Dec-15 20:34N 34°31' E 033°22'0 0.4
2014-Dec-15 19:33N 34°31' E 033°21'0 0.5
2014-Dec-15 18:34N 34°30' E 033°21'1 0.5
2014-Dec-15 17:30N 34°30' E 033°20'0 0.4
2014-Dec-15 16:33N 34°30' E 033°20'0 0.3
2014-Dec-15 15:33N 34°30' E 033°19'7 6.6
2014-Dec-15 14:33N 34°23' E 033°21'3 0.4
2014-Dec-15 08:04N 34°21' E 033°22'1 0.5
2014-Dec-15 05:06N 34°22' E 033°22'0 0.2
2014-Dec-15 04:29N 34°23' E 033°22'0 0.3
2014-Dec-15 03:31N 34°23' E 033°22'0 0.3
2014-Dec-15 02:33N 34°22' E 033°22'0 0.3
2014-Dec-15 01:32N 34°22' E 033°21'0 0.3
2014-Dec-15 00:33N 34°23' E 033°21'0 0.2
2014-Dec-14 23:34N 34°23' E 033°21'0 0.3
2014-Dec-14 22:33N 34°23' E 033°21'0 0.4
2014-Dec-14 21:31N 34°23' E 033°21'0 0.4
2014-Dec-14 20:32N 34°24' E 033°21'0 0.5
2014-Dec-14 19:33N 34°24' E 033°20'0 0.5
2014-Dec-14 18:34N 34°25' E 033°20'1 0.5
2014-Dec-14 17:34N 34°25' E 033°20'1 0.6
2014-Dec-14 16:33N 34°26' E 033°20'1 0.6
2014-Dec-14 15:31N 34°26' E 033°20'1 0.7
2014-Dec-14 14:31N 34°27' E 033°20'1 0.7
2014-Dec-14 13:33N 34°28' E 033°19'1 0.7
2014-Dec-14 12:33N 34°28' E 033°19'1 1.1
2014-Dec-14 11:33N 34°29' E 033°18'0 0.4
2014-Dec-14 10:33N 34°30' E 033°18'1 0.6
2014-Dec-14 09:34N 34°30' E 033°17'9 8.8
2014-Dec-14 08:33N 34°26' E 033°27'2 0.9
2014-Dec-14 06:19N 34°24' E 033°28'0 0.3
2014-Dec-14 05:30N 34°24' E 033°28'1 0.3
2014-Dec-14 03:12N 34°25' E 033°27'0 0.1
2014-Dec-14 02:32N 34°25' E 033°27'0 0.1
2014-Dec-14 01:30N 34°25' E 033°27'0 0.1
2014-Dec-14 00:34N 34°25' E 033°27'0 0.2
2014-Dec-13 23:33N 34°25' E 033°27'0 0.4
2014-Dec-13 22:34N 34°24' E 033°26'1 0.5
2014-Dec-13 21:34N 34°24' E 033°26'0 0.4
2014-Dec-13 20:34N 34°24' E 033°25'0 0.4
2014-Dec-13 19:33N 34°24' E 033°25'0 0.4
2014-Dec-13 18:33N 34°24' E 033°24'0 0.2
2014-Dec-13 17:33N 34°24' E 033°24'0 0.4
2014-Dec-13 16:33N 34°24' E 033°24'0 0.2
2014-Dec-13 15:33N 34°24' E 033°23'0 0.2
2014-Dec-13 14:20N 34°24' E 033°23'0 0.3
2014-Dec-13 13:32N 34°24' E 033°23'0 0.4
2014-Dec-13 12:33N 34°24' E 033°23'0 0.5
2014-Dec-13 11:33N 34°24' E 033°22'1 0.8
2014-Dec-13 10:26N 34°23' E 033°21'1 1.0
2014-Dec-13 09:32N 34°23' E 033°20'1 0.9
2014-Dec-13 08:34N 34°22' E 033°19'4 3.9
2014-Dec-13 07:33N 34°26' E 033°19'3 3.0
2014-Dec-13 06:33N 34°29' E 033°19'1 0.9
2014-Dec-13 05:34N 34°29' E 033°18'1 1.0
2014-Dec-13 04:33N 34°28' E 033°18'1 1.0
2014-Dec-13 03:34N 34°27' E 033°17'1 1.0
2014-Dec-13 02:34N 34°26' E 033°16'1 1.0
2014-Dec-13 01:33N 34°25' E 033°16'1 1.1
2014-Dec-13 00:32N 34°24' E 033°15'1 0.9
2014-Dec-12 23:33N 34°23' E 033°15'1 0.8
2014-Dec-12 22:32N 34°23' E 033°15'1 0.7
2014-Dec-12 21:34N 34°22' E 033°14'1 0.7
2014-Dec-12 20:33N 34°21' E 033°14'1 0.7
2014-Dec-12 19:32N 34°21' E 033°14'1 0.7
2014-Dec-12 18:31N 34°20' E 033°13'1 0.6
2014-Dec-12 17:24N 34°20' E 033°13'1 0.6
2014-Dec-12 16:33N 34°19' E 033°12'1 0.7
2014-Dec-12 15:34N 34°19' E 033°12'1 0.7
2014-Dec-12 14:33N 34°18' E 033°11'1 0.8
2014-Dec-12 13:34N 34°18' E 033°10'1 0.8
2014-Dec-12 12:32N 34°17' E 033°10'1 0.8
2014-Dec-12 11:32N 34°17' E 033°09'1 0.5
2014-Dec-12 10:32N 34°16' E 033°09'1 0.9
2014-Dec-12 09:16N 34°16' E 033°11'1 0.9
2014-Dec-12 08:31N 34°16' E 033°12'2 0.8
2014-Dec-12 06:08N 34°17' E 033°13'8 8.0
2014-Dec-12 05:09N 34°24' E 033°10'0 0.8
2014-Dec-12 04:33N 34°24' E 033°10'1 0.9
2014-Dec-12 03:33N 34°24' E 033°11'1 0.9
2014-Dec-12 02:33N 34°23' E 033°13'1 0.9
2014-Dec-12 01:33N 34°23' E 033°14'1 1.0
2014-Dec-12 00:33N 34°23' E 033°15'1 1.0
2014-Dec-11 23:32N 34°23' E 033°16'1 1.1
2014-Dec-11 22:32N 34°22' E 033°17'1 1.1
2014-Dec-11 21:33N 34°22' E 033°18'1 0.9
2014-Dec-11 20:33N 34°23' E 033°19'9 8.8
2014-Dec-11 19:33N 34°29' E 033°11'1 0.7
2014-Dec-11 18:33N 34°29' E 033°12'1 0.8
2014-Dec-11 17:33N 34°29' E 033°13'1 0.9
2014-Dec-11 16:34N 34°28' E 033°14'1 0.9
2014-Dec-11 15:33N 34°28' E 033°15'1 0.7
2014-Dec-11 14:33N 34°28' E 033°16'9 8.6
2014-Dec-11 13:34N 34°29' E 033°06'1212.2
2014-Dec-11 12:34N 34°29' E 032°51'1212.2
2014-Dec-11 11:33N 34°29' E 032°36'  
Track history (hours):
 
Tides and Currents Weather Stations Pressure Air Temp Water Temp Dewpoint Dewpoint Depression Visibility Wind Speed Wind Dir Waves Ship Positions

Krisjanis Valdemars

Last reported at 2014-Dec-20 06:33 UTC. Time now 2014-Dec-20 15:50 UTC.
Position N 41°27' E 029°38'.

Length 183 m; draft 6.5 m.

Type: Tanker. MMSI: 538002757.

Date/timePositionNaut miles runAvg speedWind from/ knotsBaromVisibWave heightAir tempDewpointWater temp
2014-Dec-20 06:33N 41°27' E 029°38'1414.1
2014-Dec-20 05:33N 41°19' E 029°22'2411.7
2014-Dec-20 03:31N 41°02' E 029°00'9 9.3
2014-Dec-20 02:31N 40°53' E 028°55'10 9.0
2014-Dec-20 01:27N 40°49' E 028°44'2 1.1
2014-Dec-19 23:16N 40°48' E 028°46'1 0.8
2014-Dec-19 22:31N 40°47' E 028°46'1 0.4
2014-Dec-19 20:11N 40°47' E 028°48'0 0.3
2014-Dec-19 19:24N 40°47' E 028°48'0 0.3
2014-Dec-19 18:20N 40°47' E 028°48'0 0.2
2014-Dec-19 17:23N 40°48' E 028°48'0 0.2
2014-Dec-19 16:29N 40°48' E 028°48'0 0.3
2014-Dec-19 15:33N 40°48' E 028°48'0 0.4
2014-Dec-19 14:33N 40°48' E 028°47'1 0.5
2014-Dec-19 13:30N 40°48' E 028°46'0 0.5
2014-Dec-19 12:33N 40°47' E 028°46'0 0.4
2014-Dec-19 11:33N 40°47' E 028°45'1 0.7
2014-Dec-19 09:33N 40°48' E 028°44'23910.4
2014-Dec-18 10:30N 37°32' E 025°49'1313.1
2014-Dec-18 09:31N 37°22' E 026°00'1313.8
2014-Dec-18 08:33N 37°15' E 026°15'1513.6
2014-Dec-18 07:28N 37°08' E 026°31'3213.2
2014-Dec-18 05:04N 36°38' E 026°46'714.2
2014-Dec-18 04:32N 36°31' E 026°48'1713.9
2014-Dec-18 03:19N 36°16' E 026°59'28214.3
2014-Dec-17 07:32N 34°34' E 032°21'1414.3
2014-Dec-17 06:33N 34°29' E 032°37'1414.2
2014-Dec-17 05:33N 34°30' E 032°55'1414.0
2014-Dec-17 04:33N 34°31' E 033°12'5 5.4
2014-Dec-17 03:33N 34°30' E 033°18'1 0.6
2014-Dec-17 02:34N 34°30' E 033°19'1 1.2
2014-Dec-17 01:29N 34°29' E 033°20'1 0.7
2014-Dec-17 00:34N 34°30' E 033°20'0 0.3
2014-Dec-16 23:33N 34°30' E 033°19'0 0.1
2014-Dec-16 22:34N 34°30' E 033°19'0 0.1
2014-Dec-16 21:34N 34°30' E 033°19'0 0.4
2014-Dec-16 20:33N 34°30' E 033°19'1 0.7
2014-Dec-16 19:34N 34°29' E 033°18'1 0.9
2014-Dec-16 18:34N 34°28' E 033°18'2 1.5
2014-Dec-16 17:34N 34°27' E 033°18'4 3.8
2014-Dec-16 16:30N 34°23' E 033°18'8 0.8
2014-Dec-16 06:30N 34°15' E 033°17'0 0.3
2014-Dec-16 05:13N 34°16' E 033°17'1 0.3
2014-Dec-16 03:28N 34°16' E 033°17'1 0.4
2014-Dec-16 02:17N 34°17' E 033°17'1 0.8
2014-Dec-16 01:31N 34°17' E 033°17'2 1.5
2014-Dec-16 00:07N 34°19' E 033°18'2 4.0
2014-Dec-15 23:33N 34°22' E 033°19'4 4.3
2014-Dec-15 22:33N 34°26' E 033°20'3 3.5
2014-Dec-15 21:34N 34°29' E 033°21'1 1.4
2014-Dec-15 20:34N 34°31' E 033°22'0 0.4
2014-Dec-15 19:33N 34°31' E 033°21'0 0.5
2014-Dec-15 18:34N 34°30' E 033°21'1 0.5
2014-Dec-15 17:30N 34°30' E 033°20'0 0.4
2014-Dec-15 16:33N 34°30' E 033°20'0 0.3
2014-Dec-15 15:33N 34°30' E 033°19'7 6.6
2014-Dec-15 14:33N 34°23' E 033°21'3 0.4
2014-Dec-15 08:04N 34°21' E 033°22'1 0.5
2014-Dec-15 05:06N 34°22' E 033°22'0 0.2
2014-Dec-15 04:29N 34°23' E 033°22'0 0.3
2014-Dec-15 03:31N 34°23' E 033°22'0 0.3
2014-Dec-15 02:33N 34°22' E 033°22'0 0.3
2014-Dec-15 01:32N 34°22' E 033°21'0 0.3
2014-Dec-15 00:33N 34°23' E 033°21'0 0.2
2014-Dec-14 23:34N 34°23' E 033°21'0 0.3
2014-Dec-14 22:33N 34°23' E 033°21'0 0.4
2014-Dec-14 21:31N 34°23' E 033°21'0 0.4
2014-Dec-14 20:32N 34°24' E 033°21'0 0.5
2014-Dec-14 19:33N 34°24' E 033°20'0 0.5
2014-Dec-14 18:34N 34°25' E 033°20'1 0.5
2014-Dec-14 17:34N 34°25' E 033°20'1 0.6
2014-Dec-14 16:33N 34°26' E 033°20'1 0.6
2014-Dec-14 15:31N 34°26' E 033°20'1 0.7
2014-Dec-14 14:31N 34°27' E 033°20'1 0.7
2014-Dec-14 13:33N 34°28' E 033°19'1 0.7
2014-Dec-14 12:33N 34°28' E 033°19'1 1.1
2014-Dec-14 11:33N 34°29' E 033°18'0 0.4
2014-Dec-14 10:33N 34°30' E 033°18'1 0.6
2014-Dec-14 09:34N 34°30' E 033°17'9 8.8
2014-Dec-14 08:33N 34°26' E 033°27'2 0.9
2014-Dec-14 06:19N 34°24' E 033°28'0 0.3
2014-Dec-14 05:30N 34°24' E 033°28'1 0.3
2014-Dec-14 03:12N 34°25' E 033°27'0 0.1
2014-Dec-14 02:32N 34°25' E 033°27'0 0.1
2014-Dec-14 01:30N 34°25' E 033°27'0 0.1
2014-Dec-14 00:34N 34°25' E 033°27'0 0.2
2014-Dec-13 23:33N 34°25' E 033°27'0 0.4
2014-Dec-13 22:34N 34°24' E 033°26'1 0.5
2014-Dec-13 21:34N 34°24' E 033°26'0 0.4
2014-Dec-13 20:34N 34°24' E 033°25'0 0.4
2014-Dec-13 19:33N 34°24' E 033°25'0 0.4
2014-Dec-13 18:33N 34°24' E 033°24'0 0.2
2014-Dec-13 17:33N 34°24' E 033°24'0 0.4
2014-Dec-13 16:33N 34°24' E 033°24'0 0.2
2014-Dec-13 15:33N 34°24' E 033°23'0 0.2
2014-Dec-13 14:20N 34°24' E 033°23'0 0.3
2014-Dec-13 13:32N 34°24' E 033°23'0 0.4
2014-Dec-13 12:33N 34°24' E 033°23'0 0.5
2014-Dec-13 11:33N 34°24' E 033°22'1 0.8
2014-Dec-13 10:26N 34°23' E 033°21'1 1.0
2014-Dec-13 09:32N 34°23' E 033°20'1 0.9
2014-Dec-13 08:34N 34°22' E 033°19'4 3.9
2014-Dec-13 07:33N 34°26' E 033°19'3 3.0
2014-Dec-13 06:33N 34°29' E 033°19'1 0.9
2014-Dec-13 05:34N 34°29' E 033°18'1 1.0
2014-Dec-13 04:33N 34°28' E 033°18'1 1.0
2014-Dec-13 03:34N 34°27' E 033°17'1 1.0
2014-Dec-13 02:34N 34°26' E 033°16'1 1.0
2014-Dec-13 01:33N 34°25' E 033°16'1 1.1
2014-Dec-13 00:32N 34°24' E 033°15'1 0.9
2014-Dec-12 23:33N 34°23' E 033°15'1 0.8
2014-Dec-12 22:32N 34°23' E 033°15'1 0.7
2014-Dec-12 21:34N 34°22' E 033°14'1 0.7
2014-Dec-12 20:33N 34°21' E 033°14'1 0.7
2014-Dec-12 19:32N 34°21' E 033°14'1 0.7
2014-Dec-12 18:31N 34°20' E 033°13'1 0.6
2014-Dec-12 17:24N 34°20' E 033°13'1 0.6
2014-Dec-12 16:33N 34°19' E 033°12'1 0.7
2014-Dec-12 15:34N 34°19' E 033°12'1 0.7
2014-Dec-12 14:33N 34°18' E 033°11'1 0.8
2014-Dec-12 13:34N 34°18' E 033°10'1 0.8
2014-Dec-12 12:32N 34°17' E 033°10'1 0.8
2014-Dec-12 11:32N 34°17' E 033°09'1 0.5
2014-Dec-12 10:32N 34°16' E 033°09'1 0.9
2014-Dec-12 09:16N 34°16' E 033°11'1 0.9
2014-Dec-12 08:31N 34°16' E 033°12'2 0.8
2014-Dec-12 06:08N 34°17' E 033°13'8 8.0
2014-Dec-12 05:09N 34°24' E 033°10'0 0.8
2014-Dec-12 04:33N 34°24' E 033°10'1 0.9
2014-Dec-12 03:33N 34°24' E 033°11'1 0.9
2014-Dec-12 02:33N 34°23' E 033°13'1 0.9
2014-Dec-12 01:33N 34°23' E 033°14'1 1.0
2014-Dec-12 00:33N 34°23' E 033°15'1 1.0
2014-Dec-11 23:32N 34°23' E 033°16'1 1.1
2014-Dec-11 22:32N 34°22' E 033°17'1 1.1
2014-Dec-11 21:33N 34°22' E 033°18'1 0.9
2014-Dec-11 20:33N 34°23' E 033°19'9 8.8
2014-Dec-11 19:33N 34°29' E 033°11'1 0.7
2014-Dec-11 18:33N 34°29' E 033°12'1 0.8
2014-Dec-11 17:33N 34°29' E 033°13'1 0.9
2014-Dec-11 16:34N 34°28' E 033°14'1 0.9
2014-Dec-11 15:33N 34°28' E 033°15'1 0.7
2014-Dec-11 14:33N 34°28' E 033°16'9 8.6
2014-Dec-11 13:34N 34°29' E 033°06'1212.2
2014-Dec-11 12:34N 34°29' E 032°51'1212.2
2014-Dec-11 11:33N 34°29' E 032°36'  

Dump ship's entire track history